Time;durP1;ratioP1;P1;durP2;ratioP2;P2;SDS_P1;SDS_P2;PMS_P1;PMS_P2;Temp;Humidity;BMP_temperature;BMP_pressure;BME280_temperature;BME280_humidity;BME280_pressure;Samples;Min_cycle;Max_cycle;Signal;HPM_P1;HPM_P2
2021/07/10 00:01:15;113979.00;0.38;197.70;0.00;0.00;0.62;;;;;19.20;1.00;;;;;;2264569;61;1987;-85
2021/07/10 00:03:44;252550.00;0.84;436.34;83897.00;0.28;145.77;;;;;18.80;1.00;;;;;;2264508;61;1712;-86
2021/07/10 00:06:11;85212.00;0.28;148.04;0.00;0.00;0.62;;;;;19.00;1.00;;;;;;2264640;61;912;-86
2021/07/10 00:08:38;43462.00;0.14;75.88;0.00;0.00;0.62;;;;;19.20;1.00;;;;;;2264571;61;1138;-86
2021/07/10 00:11:06;365735.00;1.22;630.91;82637.00;0.28;143.59;;;;;19.20;1.00;;;;;;2264604;61;1019;-86
2021/07/10 00:13:33;0.00;0.00;0.62;0.00;0.00;0.62;;;;;19.00;1.00;;;;;;2264557;61;1391;-86
2021/07/10 00:16:00;88401.00;0.29;153.55;0.00;0.00;0.62;;;;;18.90;1.00;;;;;;2264615;61;1051;-86
2021/07/10 00:18:27;21802.00;0.07;38.39;0.00;0.00;0.62;;;;;18.80;1.00;;;;;;2264521;61;1999;-86
2021/07/10 00:20:55;10609.00;0.04;19.00;0.00;0.00;0.62;;;;;18.90;3.20;;;;;;2264606;61;1133;-86
2021/07/10 00:23:22;0.00;0.00;0.62;0.00;0.00;0.62;;;;;19.50;1.00;;;;;;2264497;61;1440;-86
2021/07/10 00:25:49;0.00;0.00;0.62;0.00;0.00;0.62;;;;;19.30;1.10;;;;;;2264566;61;1075;-86
2021/07/10 00:28:16;86478.00;0.29;150.23;17719.00;0.06;31.32;;;;;19.20;1.00;;;;;;2264302;61;1050;-85
2021/07/10 00:30:43;0.00;0.00;0.62;0.00;0.00;0.62;;;;;19.10;1.10;;;;;;2264575;61;1096;-85
2021/07/10 00:33:10;53212.00;0.18;92.74;0.00;0.00;0.62;;;;;19.50;1.10;;;;;;2264510;61;1397;-85
2021/07/10 00:35:39;0.00;0.00;0.62;0.00;0.00;0.62;;;;;19.80;1.00;;;;;;2264434;61;1605;-87
2021/07/10 00:38:07;0.00;0.00;0.62;0.00;0.00;0.62;;;;;19.70;1.00;;;;;;2264460;61;2022;-86
2021/07/10 00:40:34;0.00;0.00;0.62;0.00;0.00;0.62;;;;;19.70;1.00;;;;;;2264520;61;1357;-85
2021/07/10 00:43:02;0.00;0.00;0.62;0.00;0.00;0.62;;;;;19.70;1.00;;;;;;2260748;61;972;-86
2021/07/10 00:45:29;29751.00;0.10;52.15;0.00;0.00;0.62;;;;;19.50;1.00;;;;;;2255903;61;1558;-86
2021/07/10 00:47:56;31820.00;0.11;55.73;0.00;0.00;0.62;;;;;19.30;1.00;;;;;;2256060;61;929;-86
2021/07/10 00:50:25;0.00;0.00;0.62;0.00;0.00;0.62;;;;;18.90;1.00;;;;;;2247993;61;1000;-86
2021/07/10 00:52:52;38457.00;0.13;67.22;0.00;0.00;0.62;;;;;18.90;1.70;;;;;;2248031;61;1068;-86
2021/07/10 00:55:23;13134.00;0.04;23.38;0.00;0.00;0.62;;;;;18.80;1.00;;;;;;2248048;62;1469;-85
2021/07/10 00:57:52;42883.00;0.14;74.88;0.00;0.00;0.62;;;;;18.90;1.20;;;;;;2244621;62;2005;-87
2021/07/10 01:00:22;0.00;0.00;0.62;0.00;0.00;0.62;;;;;19.00;1.00;;;;;;2248051;61;901;-86
2021/07/10 01:02:51;0.00;0.00;0.62;0.00;0.00;0.62;;;;;18.60;1.00;;;;;;2249416;61;1017;-86
2021/07/10 01:05:19;7097.00;0.02;12.92;0.00;0.00;0.62;;;;;18.60;1.00;;;;;;2246084;61;1387;-85
2021/07/10 01:07:46;970.00;0.00;2.30;0.00;0.00;0.62;;;;;18.70;4.30;;;;;;2251144;61;1020;-86
2021/07/10 01:10:15;11995.00;0.04;21.41;0.00;0.00;0.62;;;;;18.80;1.20;;;;;;2255858;61;960;-86
2021/07/10 01:12:45;0.00;0.00;0.62;0.00;0.00;0.62;;;;;19.00;1.00;;;;;;2249341;61;1008;-86
2021/07/10 01:15:15;280631.00;0.94;484.62;91373.00;0.30;158.68;;;;;18.70;1.00;;;;;;2249306;61;1402;-86
2021/07/10 01:17:45;234295.00;0.78;404.94;0.00;0.00;0.62;;;;;18.70;1.00;;;;;;2255950;61;1908;-86
2021/07/10 01:20:15;0.00;0.00;0.62;0.00;0.00;0.62;;;;;18.70;1.00;;;;;;2251914;61;974;-86
2021/07/10 01:22:44;0.00;0.00;0.62;0.00;0.00;0.62;;;;;18.60;1.00;;;;;;2248593;61;990;-86
2021/07/10 01:25:14;51600.00;0.17;89.95;0.00;0.00;0.62;;;;;18.60;1.00;;;;;;2242061;61;1448;-87
2021/07/10 01:27:42;40244.00;0.13;70.31;0.00;0.00;0.62;;;;;18.40;1.70;;;;;;2253480;61;996;-86
2021/07/10 01:30:10;68111.00;0.23;118.50;0.00;0.00;0.62;;;;;18.50;1.00;;;;;;2250035;61;1008;-86
2021/07/10 01:32:39;20231.00;0.07;35.67;0.00;0.00;0.62;;;;;18.70;1.90;;;;;;2256543;61;988;-86
2021/07/10 01:35:08;65910.00;0.22;114.69;0.00;0.00;0.62;;;;;18.80;1.10;;;;;;2253252;61;1335;-86
2021/07/10 01:37:35;0.00;0.00;0.62;0.00;0.00;0.62;;;;;18.40;1.00;;;;;;2254003;61;1926;-85
2021/07/10 01:40:05;75.00;0.00;0.75;0.00;0.00;0.62;;;;;18.20;1.00;;;;;;2260376;61;1011;-87
2021/07/10 01:42:33;0.00;0.00;0.62;0.00;0.00;0.62;;;;;18.20;1.00;;;;;;2260627;61;1057;-86
2021/07/10 01:45:00;0.00;0.00;0.62;0.00;0.00;0.62;;;;;18.20;1.40;;;;;;2250661;61;1413;-87
2021/07/10 01:47:28;9873.00;0.03;17.73;0.00;0.00;0.62;;;;;18.40;2.70;;;;;;2260562;61;1002;-86
2021/07/10 01:49:56;0.00;0.00;0.62;0.00;0.00;0.62;;;;;18.60;4.20;;;;;;2253929;61;968;-87
2021/07/10 01:52:23;0.00;0.00;0.62;0.00;0.00;0.62;;;;;18.60;1.00;;;;;;2250478;61;963;-86
2021/07/10 01:54:50;58152.00;0.19;101.28;0.00;0.00;0.62;;;;;18.70;2.80;;;;;;2245889;61;1329;-86
2021/07/10 01:57:19;75.00;0.00;0.75;0.00;0.00;0.62;;;;;18.70;1.00;;;;;;2246478;61;1997;-86
2021/07/10 01:59:46;0.00;0.00;0.62;0.00;0.00;0.62;;;;;18.80;1.00;;;;;;2256514;61;948;-86
2021/07/10 02:02:13;0.00;0.00;0.62;0.00;0.00;0.62;;;;;18.60;1.00;;;;;;2256581;61;1027;-86
2021/07/10 02:04:47;84965.00;0.28;147.61;0.00;0.00;0.62;;;;;18.40;1.00;;;;;;2256479;61;1400;-87
2021/07/10 02:07:14;16200.00;0.05;28.69;0.00;0.00;0.62;;;;;18.20;1.00;;;;;;2253173;61;952;-86
2021/07/10 02:09:42;0.00;0.00;0.62;0.00;0.00;0.62;;;;;18.00;1.00;;;;;;2257954;61;1009;-87
2021/07/10 02:12:10;0.00;0.00;0.62;0.00;0.00;0.62;;;;;17.70;2.60;;;;;;2257969;61;1029;-86
2021/07/10 02:14:38;36552.00;0.12;63.92;0.00;0.00;0.62;;;;;17.80;2.50;;;;;;2264925;61;1378;-86
2021/07/10 02:17:05;56214.00;0.19;97.93;0.00;0.00;0.62;;;;;17.90;2.30;;;;;;2264952;61;939;-86
2021/07/10 02:19:32;175642.00;0.59;303.98;0.00;0.00;0.62;;;;;18.20;4.60;;;;;;2261193;61;1994;-86
2021/07/10 02:21:59;55984.00;0.19;97.53;0.00;0.00;0.62;;;;;17.90;2.40;;;;;;2264936;61;907;-86
2021/07/10 02:24:27;0.00;0.00;0.62;0.00;0.00;0.62;;;;;17.80;1.70;;;;;;2261117;61;1407;-86
2021/07/10 02:26:53;16961.00;0.06;30.01;0.00;0.00;0.62;;;;;17.80;4.20;;;;;;2264932;61;1000;-86
2021/07/10 02:29:20;4818.00;0.02;8.97;0.00;0.00;0.62;;;;;18.00;3.80;;;;;;2264917;61;948;-86
2021/07/10 02:31:49;0.00;0.00;0.62;0.00;0.00;0.62;;;;;18.20;2.00;;;;;;2257882;61;1051;-86
2021/07/10 02:34:16;71901.00;0.24;125.05;0.00;0.00;0.62;;;;;18.20;2.20;;;;;;2256342;61;1411;-86
2021/07/10 02:36:43;0.00;0.00;0.62;0.00;0.00;0.62;;;;;18.20;1.00;;;;;;2256446;61;1066;-87
2021/07/10 02:39:10;114611.00;0.38;198.79;3053.00;0.01;5.91;;;;;18.00;1.00;;;;;;2253032;61;1932;-87
2021/07/10 02:41:37;0.00;0.00;0.62;0.00;0.00;0.62;;;;;17.90;2.30;;;;;;2253060;61;1096;-86
2021/07/10 02:44:05;392673.00;1.31;677.21;91368.00;0.30;158.67;;;;;17.90;1.40;;;;;;2256395;61;1408;-86
2021/07/10 02:46:32;0.00;0.00;0.62;0.00;0.00;0.62;;;;;17.80;1.20;;;;;;2253061;61;991;-87
2021/07/10 02:49:00;0.00;0.00;0.62;0.00;0.00;0.62;;;;;17.60;2.30;;;;;;2249780;61;1062;-85
2021/07/10 02:51:27;96011.00;0.32;166.69;28893.00;0.10;50.67;;;;;17.60;1.80;;;;;;2253855;61;994;-86
2021/07/10 02:53:56;0.00;0.00;0.62;0.00;0.00;0.62;;;;;17.60;2.40;;;;;;2261080;61;1448;-87
2021/07/10 02:56:24;53584.00;0.18;93.38;0.00;0.00;0.62;;;;;17.50;2.40;;;;;;2261067;61;1017;-87
2021/07/10 02:58:51;515788.00;1.72;889.01;213390.00;0.71;368.97;;;;;17.40;4.30;;;;;;2261063;61;2005;-86
2021/07/10 03:01:19;0.00;0.00;0.62;0.00;0.00;0.62;;;;;17.60;2.30;;;;;;2261091;61;971;-85
2021/07/10 03:03:46;377246.00;1.26;650.69;18682.00;0.06;32.99;;;;;17.50;4.30;;;;;;2264800;61;1440;-86
2021/07/10 03:06:16;0.00;0.00;0.62;0.00;0.00;0.62;;;;;17.60;4.00;;;;;;2260630;61;950;-86
2021/07/10 03:08:44;0.00;0.00;0.62;0.00;0.00;0.62;;;;;17.70;3.10;;;;;;2259640;61;1003;-86
2021/07/10 03:11:12;0.00;0.00;0.62;0.00;0.00;0.62;;;;;17.30;3.90;;;;;;2261016;61;979;-86
2021/07/10 03:13:39;0.00;0.00;0.62;0.00;0.00;0.62;;;;;17.40;3.90;;;;;;2256995;61;1464;-86
2021/07/10 03:16:06;10106.00;0.03;18.13;0.00;0.00;0.62;;;;;17.50;4.20;;;;;;2264350;61;1010;-86
2021/07/10 03:18:33;0.00;0.00;0.62;0.00;0.00;0.62;;;;;17.40;3.90;;;;;;2256151;61;2007;-86
2021/07/10 03:21:00;0.00;0.00;0.62;0.00;0.00;0.62;;;;;17.40;4.00;;;;;;2256174;61;936;-87
2021/07/10 03:23:28;0.00;0.00;0.62;0.00;0.00;0.62;;;;;17.50;3.70;;;;;;2249648;61;1386;-86
2021/07/10 03:25:55;0.00;0.00;0.62;0.00;0.00;0.62;;;;;17.70;3.40;;;;;;2249685;61;1003;-86
2021/07/10 03:28:22;55432.00;0.18;96.58;0.00;0.00;0.62;;;;;17.70;2.70;;;;;;2256320;61;1023;-86
2021/07/10 03:30:52;0.00;0.00;0.62;0.00;0.00;0.62;;;;;17.80;3.60;;;;;;2249644;61;1043;-86
2021/07/10 03:33:21;0.00;0.00;0.62;0.00;0.00;0.62;;;;;17.60;2.90;;;;;;2256201;61;1287;-87
2021/07/10 03:35:48;0.00;0.00;0.62;0.00;0.00;0.62;;;;;17.70;3.40;;;;;;2246902;61;998;-87
2021/07/10 03:38:15;22978.00;0.08;40.43;0.00;0.00;0.62;;;;;17.50;2.10;;;;;;2253597;61;2066;-87
2021/07/10 03:40:44;149.00;0.00;0.88;0.00;0.00;0.62;;;;;17.70;3.10;;;;;;2253620;61;999;-86
2021/07/10 03:43:13;0.00;0.00;0.62;0.00;0.00;0.62;;;;;17.40;4.40;;;;;;2256910;61;1117;-87
2021/07/10 03:45:41;0.00;0.00;0.62;0.00;0.00;0.62;;;;;17.60;2.60;;;;;;2257555;61;1084;-86
2021/07/10 03:48:08;214664.00;0.72;371.16;80528.00;0.27;139.95;;;;;17.50;3.20;;;;;;2260916;61;1105;-86
2021/07/10 03:50:35;0.00;0.00;0.62;0.00;0.00;0.62;;;;;17.70;2.70;;;;;;2260090;61;1061;-86
2021/07/10 03:53:03;85745.00;0.29;148.96;0.00;0.00;0.62;;;;;17.80;4.60;;;;;;2253551;61;986;-86
2021/07/10 03:55:31;0.00;0.00;0.62;0.00;0.00;0.62;;;;;17.80;4.80;;;;;;2251338;61;1472;-86
2021/07/10 03:58:01;0.00;0.00;0.62;0.00;0.00;0.62;;;;;17.80;2.30;;;;;;2256762;61;1993;-86
2021/07/10 04:00:28;44102.00;0.15;76.98;0.00;0.00;0.62;;;;;18.00;1.60;;;;;;2252119;61;975;-85
2021/07/10 04:02:55;0.00;0.00;0.62;0.00;0.00;0.62;;;;;18.00;1.40;;;;;;2256766;61;943;-86
2021/07/10 04:05:23;157448.00;0.52;272.64;0.00;0.00;0.62;;;;;17.80;2.00;;;;;;2250192;61;1418;-87
2021/07/10 04:07:50;135292.00;0.45;234.45;0.00;0.00;0.62;;;;;18.00;1.90;;;;;;2260180;61;934;-87
2021/07/10 04:10:18;60425.00;0.20;105.21;0.00;0.00;0.62;;;;;18.00;1.00;;;;;;2260064;61;1642;-86
2021/07/10 04:12:46;129246.00;0.43;224.03;38725.00;0.13;67.68;;;;;18.00;1.70;;;;;;2253510;61;1044;-86
2021/07/10 04:15:17;34241.00;0.11;59.92;0.00;0.00;0.62;;;;;17.90;1.50;;;;;;2250287;61;1217;-86
2021/07/10 04:17:44;0.00;0.00;0.62;0.00;0.00;0.62;;;;;17.70;2.50;;;;;;2245580;61;980;-86
2021/07/10 04:20:12;69154.00;0.23;120.30;0.00;0.00;0.62;;;;;17.70;2.00;;;;;;2248702;61;1983;-86
2021/07/10 04:22:40;0.00;0.00;0.62;0.00;0.00;0.62;;;;;17.60;3.10;;;;;;2248782;61;1012;-87
2021/07/10 04:25:10;268529.00;0.90;463.81;0.00;0.00;0.62;;;;;17.60;2.60;;;;;;2252015;61;1920;-85
2021/07/10 04:27:39;92344.00;0.31;160.35;0.00;0.00;0.62;;;;;17.60;2.70;;;;;;2252176;61;951;-86
2021/07/10 04:30:08;0.00;0.00;0.62;0.00;0.00;0.62;;;;;17.70;4.40;;;;;;2252042;61;1086;-86
2021/07/10 04:32:37;81886.00;0.27;142.29;0.00;0.00;0.62;;;;;17.90;2.00;;;;;;2254567;61;1032;-86
2021/07/10 04:40:02;0.00;0.00;0.62;0.00;0.00;0.62;;;;;17.90;3.10;;;;;;2270849;61;1906;-88
2021/07/10 06:16:49;375.00;0.00;1.27;0.00;0.00;0.62;;;;;30.30;1.00;;;;;;2270805;61;956;-90
2021/07/10 06:36:33;237551.00;0.79;410.54;0.00;0.00;0.62;;;;;32.60;1.00;;;;;;2271005;61;936;-86
2021/07/10 06:46:32;0.00;0.00;0.62;0.00;0.00;0.62;;;;;34.50;1.00;;;;;;2271221;61;886;-89
2021/07/10 06:59:11;204823.00;0.68;354.23;68663.00;0.23;119.45;;;;;34.60;1.00;;;;;;2270979;61;1946;-88
2021/07/10 07:44:18;0.00;0.00;0.62;0.00;0.00;0.62;;;;;34.20;1.00;;;;;;2270917;61;1377;-87
2021/07/10 07:49:12;72701.00;0.24;126.43;0.00;0.00;0.62;;;;;34.80;1.00;;;;;;2271113;61;1320;-87
2021/07/10 08:14:04;68200.00;0.23;118.65;0.00;0.00;0.62;;;;;33.80;1.00;;;;;;2269889;61;1403;-85
2021/07/10 08:18:58;55602.00;0.19;96.87;0.00;0.00;0.62;;;;;33.50;1.00;;;;;;2270657;61;1945;-87
2021/07/10 08:58:51;1013932.00;3.38;1757.16;0.00;0.00;0.62;;;;;33.30;1.00;;;;;;2270297;61;1888;-87
2021/07/10 09:11:17;10560.00;0.04;18.92;0.00;0.00;0.62;;;;;31.20;1.00;;;;;;2457987;40;3883;31
2021/07/10 09:21:10;13917.00;0.05;24.73;0.00;0.00;0.62;;;;;31.40;1.00;;;;;;2269555;61;1390;-83
2021/07/10 09:41:04;177723.00;0.59;307.57;67913.00;0.23;118.15;;;;;28.90;1.00;;;;;;2269896;61;1210;-81
2021/07/10 09:43:34;177771.00;0.59;307.65;60915.00;0.20;106.06;;;;;29.20;1.00;;;;;;2259880;61;976;-82
2021/07/10 09:48:30;180320.00;0.60;312.04;71358.00;0.24;124.11;;;;;29.80;1.00;;;;;;2270397;61;1303;-84
2021/07/10 09:51:16;163006.00;0.54;282.22;61941.00;0.21;107.83;;;;;30.20;1.00;;;;;;2267778;61;1213;-83
2021/07/10 09:53:57;163631.00;0.55;283.30;60382.00;0.20;105.14;;;;;30.20;1.00;;;;;;2267550;61;1013;-82
2021/07/10 09:56:25;168367.00;0.56;291.45;65594.00;0.22;114.15;;;;;30.00;1.00;;;;;;2263750;61;1023;-84
2021/07/10 09:58:52;245464.00;0.82;424.15;67591.00;0.23;117.60;;;;;30.10;1.00;;;;;;2255424;61;2010;-85
2021/07/10 10:01:29;223964.00;0.75;387.16;76991.00;0.26;133.84;;;;;30.00;1.00;;;;;;2249991;61;971;-82
2021/07/10 10:03:56;372072.00;1.24;641.80;67423.00;0.22;117.31;;;;;29.70;1.00;;;;;;2243890;61;1390;-83
2021/07/10 10:06:31;328291.00;1.09;566.55;64043.00;0.21;111.47;;;;;28.90;1.00;;;;;;2242306;61;1566;-84
2021/07/10 10:08:58;173031.00;0.58;299.49;70310.00;0.23;122.30;;;;;28.60;1.00;;;;;;2244475;61;941;-82
2021/07/10 10:11:41;228645.00;0.76;395.22;74122.00;0.25;128.88;;;;;28.60;1.00;;;;;;2244520;61;982;-83
2021/07/10 10:14:09;7552.00;0.03;13.71;0.00;0.00;0.62;;;;;28.80;1.00;;;;;;2244282;61;1309;-83
2021/07/10 10:19:08;92219.00;0.31;160.14;0.00;0.00;0.62;;;;;28.10;1.00;;;;;;2270314;61;1891;-82
2021/07/10 10:21:36;158347.00;0.53;274.19;0.00;0.00;0.62;;;;;28.00;1.00;;;;;;2268933;61;926;-81
2021/07/10 10:24:03;149975.00;0.50;259.76;0.00;0.00;0.62;;;;;28.20;1.00;;;;;;2268832;61;1324;-82
2021/07/10 10:39:13;0.00;0.00;0.62;0.00;0.00;0.62;;;;;28.40;1.00;;;;;;2257731;61;1972;-81
2021/07/10 10:41:42;0.00;0.00;0.62;0.00;0.00;0.62;;;;;28.20;1.00;;;;;;2256313;61;1310;-81
2021/07/10 10:44:10;0.00;0.00;0.62;0.00;0.00;0.62;;;;;28.60;1.00;;;;;;2256328;61;1147;-81
2021/07/10 10:46:46;0.00;0.00;0.62;0.00;0.00;0.62;;;;;28.20;1.00;;;;;;2255959;61;1218;-80
2021/07/10 10:49:36;0.00;0.00;0.62;0.00;0.00;0.62;;;;;28.10;1.00;;;;;;2256201;61;1136;-81
2021/07/10 10:52:24;0.00;0.00;0.62;0.00;0.00;0.62;;;;;28.20;1.00;;;;;;2257354;61;1153;-83
2021/07/10 10:54:54;0.00;0.00;0.62;0.00;0.00;0.62;;;;;28.40;1.00;;;;;;2259545;61;1168;-83
2021/07/10 10:57:40;17949.00;0.06;31.72;0.00;0.00;0.62;;;;;28.50;1.00;;;;;;2258949;61;1100;-86
2021/07/10 11:00:28;230128.00;0.77;397.77;71815.00;0.24;124.90;;;;;28.60;1.00;;;;;;2259662;61;2004;-86
2021/07/10 11:02:57;0.00;0.00;0.62;0.00;0.00;0.62;;;;;29.00;1.00;;;;;;2260262;61;1195;-86
2021/07/10 11:06:00;63672.00;0.21;110.82;0.00;0.00;0.62;;;;;29.30;1.00;;;;;;2259940;61;1408;-84
2021/07/10 11:08:36;33424.00;0.11;58.51;0.00;0.00;0.62;;;;;29.30;1.00;;;;;;2258301;61;1177;-83
2021/07/10 11:11:39;0.00;0.00;0.62;0.00;0.00;0.62;;;;;28.90;1.00;;;;;;2260507;61;1278;-85
2021/07/10 11:14:29;0.00;0.00;0.62;0.00;0.00;0.62;;;;;29.30;1.00;;;;;;2258810;61;1109;-83
2021/07/10 11:17:08;36470.00;0.12;63.78;0.00;0.00;0.62;;;;;29.40;1.00;;;;;;2259003;61;1494;-83
2021/07/10 11:19:55;102493.00;0.34;177.87;0.00;0.00;0.62;;;;;29.40;1.00;;;;;;2259778;61;1918;-85
2021/07/10 11:23:02;38120.00;0.13;66.64;0.00;0.00;0.62;;;;;29.50;1.00;;;;;;2259977;61;1028;-86
2021/07/10 11:26:20;35538.00;0.12;62.17;0.00;0.00;0.62;;;;;29.90;1.00;;;;;;2258884;61;1397;-86
2021/07/10 11:28:55;74410.00;0.25;129.38;0.00;0.00;0.62;;;;;30.10;1.00;;;;;;2257928;61;1349;-84
2021/07/10 11:31:33;0.00;0.00;0.62;0.00;0.00;0.62;;;;;28.50;1.00;;;;;;2260319;61;1184;-85
2021/07/10 11:34:15;0.00;0.00;0.62;0.00;0.00;0.62;;;;;28.30;1.00;;;;;;2261198;61;1575;-84
2021/07/10 11:36:57;0.00;0.00;0.62;0.00;0.00;0.62;;;;;28.70;1.00;;;;;;2263451;61;1449;-88
2021/07/10 11:39:48;7339.00;0.02;13.34;0.00;0.00;0.62;;;;;29.00;1.00;;;;;;2261060;61;1944;-84
2021/07/10 11:42:44;0.00;0.00;0.62;0.00;0.00;0.62;;;;;29.10;1.00;;;;;;2253492;61;1157;-85
2021/07/10 11:45:32;0.00;0.00;0.62;0.00;0.00;0.62;;;;;29.00;1.00;;;;;;2260857;61;1514;-85
2021/07/10 11:48:19;0.00;0.00;0.62;0.00;0.00;0.62;;;;;28.80;1.00;;;;;;2259454;61;1086;-85
2021/07/10 11:51:00;283088.00;0.94;488.85;152146.00;0.51;263.51;;;;;28.40;1.00;;;;;;2259662;61;1202;-85
2021/07/10 11:53:27;17124.00;0.06;30.29;0.00;0.00;0.62;;;;;28.80;1.00;;;;;;2261470;61;1220;-85
2021/07/10 11:55:57;183712.00;0.61;317.88;33233.00;0.11;58.18;;;;;29.00;1.00;;;;;;2262520;61;1263;-88
2021/07/10 11:58:24;0.00;0.00;0.62;0.00;0.00;0.62;;;;;29.10;1.00;;;;;;2263818;61;1126;-87
2021/07/10 12:00:52;0.00;0.00;0.62;0.00;0.00;0.62;;;;;29.40;1.00;;;;;;2264570;61;1934;-84
2021/07/10 12:03:22;0.00;0.00;0.62;0.00;0.00;0.62;;;;;29.80;1.00;;;;;;2262805;61;1107;-85
2021/07/10 12:05:50;0.00;0.00;0.62;0.00;0.00;0.62;;;;;29.60;1.00;;;;;;2261618;61;1447;-85
2021/07/10 12:08:19;0.00;0.00;0.62;0.00;0.00;0.62;;;;;29.50;1.00;;;;;;2260782;61;1081;-85
2021/07/10 12:10:47;0.00;0.00;0.62;0.00;0.00;0.62;;;;;29.70;1.00;;;;;;2253178;61;1163;-86
2021/07/10 12:13:17;0.00;0.00;0.62;0.00;0.00;0.62;;;;;30.10;1.00;;;;;;2260580;61;1147;-88
2021/07/10 12:15:49;0.00;0.00;0.62;0.00;0.00;0.62;;;;;30.20;1.00;;;;;;2260908;61;1385;-86
2021/07/10 12:18:18;0.00;0.00;0.62;0.00;0.00;0.62;;;;;30.20;1.00;;;;;;2263051;61;1111;-86
2021/07/10 12:20:49;87663.00;0.29;152.27;22575.00;0.08;39.73;;;;;30.10;1.00;;;;;;2262912;61;2012;-86
2021/07/10 12:23:19;0.00;0.00;0.62;0.00;0.00;0.62;;;;;29.90;1.00;;;;;;2263122;61;1073;-86
2021/07/10 12:25:49;0.00;0.00;0.62;0.00;0.00;0.62;;;;;29.40;1.00;;;;;;2262902;61;1387;-85
2021/07/10 12:28:17;0.00;0.00;0.62;0.00;0.00;0.62;;;;;29.10;1.00;;;;;;2260820;61;1252;-83
2021/07/10 12:30:48;51094.00;0.17;89.08;0.00;0.00;0.62;;;;;28.40;1.00;;;;;;2260538;61;1187;-84
2021/07/10 12:33:36;0.00;0.00;0.62;0.00;0.00;0.62;;;;;28.30;1.00;;;;;;2261098;61;1136;-84
2021/07/10 12:36:20;0.00;0.00;0.62;0.00;0.00;0.62;;;;;28.30;1.00;;;;;;2262170;61;1289;-84
2021/07/10 12:39:00;0.00;0.00;0.62;0.00;0.00;0.62;;;;;28.70;1.00;;;;;;2252527;61;1235;-84
2021/07/10 12:41:32;109177.00;0.36;189.41;42009.00;0.14;73.36;;;;;28.70;1.00;;;;;;2268004;61;2015;-83
2021/07/10 12:44:11;0.00;0.00;0.62;0.00;0.00;0.62;;;;;28.70;1.00;;;;;;2266914;61;1108;-85
2021/07/10 12:46:51;0.00;0.00;0.62;0.00;0.00;0.62;;;;;28.90;1.00;;;;;;2266916;61;1411;-87
2021/07/10 12:49:19;120424.00;0.40;208.81;37054.00;0.12;64.79;;;;;29.50;1.00;;;;;;2265527;61;1123;-84
2021/07/10 12:51:48;68049.00;0.23;118.39;0.00;0.00;0.62;;;;;28.60;1.00;;;;;;2265238;61;1249;-84
2021/07/10 12:54:34;27877.00;0.09;48.91;0.00;0.00;0.62;;;;;27.90;1.00;;;;;;2264179;61;1108;-85
2021/07/10 12:57:23;2887.00;0.01;5.62;0.00;0.00;0.62;;;;;27.70;1.00;;;;;;2263985;61;1361;-84
2021/07/10 12:59:52;0.00;0.00;0.62;0.00;0.00;0.62;;;;;27.70;1.00;;;;;;2265427;61;1917;-84
2021/07/10 13:02:28;0.00;0.00;0.62;0.00;0.00;0.62;;;;;28.10;1.00;;;;;;2264948;61;1104;-85
2021/07/10 13:04:56;0.00;0.00;0.62;0.00;0.00;0.62;;;;;28.70;1.00;;;;;;2266428;61;1090;-87
2021/07/10 13:07:30;0.00;0.00;0.62;0.00;0.00;0.62;;;;;29.20;1.00;;;;;;2265105;61;1171;-85
2021/07/10 13:09:58;0.00;0.00;0.62;0.00;0.00;0.62;;;;;29.50;1.00;;;;;;2257355;61;1078;-85
2021/07/10 13:12:42;0.00;0.00;0.62;0.00;0.00;0.62;;;;;29.40;1.00;;;;;;2264623;61;1061;-86
2021/07/10 13:15:11;126505.00;0.42;219.30;0.00;0.00;0.62;;;;;29.40;1.00;;;;;;2264217;61;1366;-85
2021/07/10 13:17:38;0.00;0.00;0.62;0.00;0.00;0.62;;;;;29.40;1.00;;;;;;2264831;61;1045;-85
2021/07/10 13:20:25;0.00;0.00;0.62;0.00;0.00;0.62;;;;;29.00;1.00;;;;;;2264094;61;1935;-85
2021/07/10 13:22:53;0.00;0.00;0.62;0.00;0.00;0.62;;;;;28.40;1.00;;;;;;2264406;61;1224;-85
2021/07/10 13:25:21;0.00;0.00;0.62;0.00;0.00;0.62;;;;;28.30;1.00;;;;;;2264557;61;1382;-85
2021/07/10 13:27:48;0.00;0.00;0.62;0.00;0.00;0.62;;;;;28.70;1.00;;;;;;2263768;61;1072;-85
2021/07/10 13:30:17;0.00;0.00;0.62;0.00;0.00;0.62;;;;;28.70;1.00;;;;;;2267106;61;1195;-85
2021/07/10 13:32:53;0.00;0.00;0.62;0.00;0.00;0.62;;;;;29.10;1.00;;;;;;2260270;61;1186;-86
2021/07/10 13:35:25;0.00;0.00;0.62;0.00;0.00;0.62;;;;;29.10;1.00;;;;;;2257773;61;1313;-86
2021/07/10 13:37:54;0.00;0.00;0.62;0.00;0.00;0.62;;;;;28.80;1.00;;;;;;2268513;61;1205;-86
2021/07/10 13:40:24;0.00;0.00;0.62;0.00;0.00;0.62;;;;;28.90;1.00;;;;;;2268641;61;1934;-86
2021/07/10 13:42:55;0.00;0.00;0.62;0.00;0.00;0.62;;;;;29.30;1.00;;;;;;2268781;61;1077;-86
2021/07/10 13:45:23;0.00;0.00;0.62;0.00;0.00;0.62;;;;;29.30;1.00;;;;;;2258170;61;1328;-86
2021/07/10 13:47:53;0.00;0.00;0.62;0.00;0.00;0.62;;;;;29.00;1.00;;;;;;2261874;61;1085;-87
2021/07/10 13:50:20;36020.00;0.12;63.00;0.00;0.00;0.62;;;;;29.20;1.00;;;;;;2269009;61;1315;-87
2021/07/10 13:52:47;0.00;0.00;0.62;0.00;0.00;0.62;;;;;29.70;1.00;;;;;;2269018;61;1131;-86
2021/07/10 13:55:15;251312.00;0.84;434.21;113079.00;0.38;196.14;;;;;30.00;1.00;;;;;;2268964;61;1346;-85
2021/07/10 13:57:43;0.00;0.00;0.62;0.00;0.00;0.62;;;;;29.60;1.00;;;;;;2268872;61;1860;-86
2021/07/10 14:00:16;0.00;0.00;0.62;0.00;0.00;0.62;;;;;29.60;1.00;;;;;;2269024;61;1919;-86
2021/07/10 14:02:47;0.00;0.00;0.62;0.00;0.00;0.62;;;;;29.10;1.00;;;;;;2269005;61;1123;-86
2021/07/10 14:05:17;0.00;0.00;0.62;0.00;0.00;0.62;;;;;28.90;1.00;;;;;;2268888;61;1474;-86
2021/07/10 14:07:46;0.00;0.00;0.62;0.00;0.00;0.62;;;;;29.00;1.00;;;;;;2258496;61;954;-86
2021/07/10 14:10:17;111102.00;0.37;192.73;26214.00;0.09;46.03;;;;;28.20;1.00;;;;;;2269045;61;985;-85
2021/07/10 14:12:44;0.00;0.00;0.62;0.00;0.00;0.62;;;;;27.80;1.00;;;;;;2268910;61;1059;-86
2021/07/10 14:15:14;0.00;0.00;0.62;0.00;0.00;0.62;;;;;27.60;1.00;;;;;;2268612;61;1329;-85
2021/07/10 14:17:41;0.00;0.00;0.62;0.00;0.00;0.62;;;;;28.10;1.00;;;;;;2268213;61;1112;-85
2021/07/10 14:20:10;0.00;0.00;0.62;0.00;0.00;0.62;;;;;28.20;1.00;;;;;;2267328;61;2000;-84
2021/07/10 14:22:38;0.00;0.00;0.62;0.00;0.00;0.62;;;;;28.10;1.00;;;;;;2260394;61;1173;-84
2021/07/10 14:25:07;0.00;0.00;0.62;0.00;0.00;0.62;;;;;28.10;1.00;;;;;;2266710;61;1368;-85
2021/07/10 14:27:35;0.00;0.00;0.62;0.00;0.00;0.62;;;;;28.20;1.00;;;;;;2259449;61;1254;-86
2021/07/10 14:30:02;0.00;0.00;0.62;0.00;0.00;0.62;;;;;28.50;1.00;;;;;;2257283;61;1275;-85
2021/07/10 14:32:29;0.00;0.00;0.62;0.00;0.00;0.62;;;;;29.30;1.00;;;;;;2267842;61;1093;-85
2021/07/10 14:34:56;42922.00;0.14;74.94;0.00;0.00;0.62;;;;;29.30;1.00;;;;;;2268181;61;1123;-85
2021/07/10 14:37:24;0.00;0.00;0.62;0.00;0.00;0.62;;;;;28.40;1.00;;;;;;2268544;61;1180;-85
2021/07/10 14:39:51;11637.00;0.04;20.79;0.00;0.00;0.62;;;;;28.50;1.00;;;;;;2268671;61;2012;-86
2021/07/10 14:42:18;0.00;0.00;0.62;0.00;0.00;0.62;;;;;29.20;1.00;;;;;;2268830;61;1228;-85
2021/07/10 14:44:47;0.00;0.00;0.62;0.00;0.00;0.62;;;;;29.80;1.00;;;;;;2268598;61;1140;-88
2021/07/10 14:47:15;30960.00;0.10;54.24;0.00;0.00;0.62;;;;;30.10;1.00;;;;;;2267929;61;1419;-85
2021/07/10 14:49:42;0.00;0.00;0.62;0.00;0.00;0.62;;;;;30.20;1.00;;;;;;2268059;61;1656;-86
2021/07/10 14:52:10;0.00;0.00;0.62;0.00;0.00;0.62;;;;;30.20;1.00;;;;;;2268902;61;1072;-87
2021/07/10 14:54:37;0.00;0.00;0.62;0.00;0.00;0.62;;;;;30.60;1.00;;;;;;2261312;61;1046;-88
2021/07/10 14:57:05;7772.00;0.03;14.09;0.00;0.00;0.62;;;;;30.50;1.00;;;;;;2267697;61;1310;-88
2021/07/10 14:59:31;0.00;0.00;0.62;0.00;0.00;0.62;;;;;30.20;1.00;;;;;;2268098;61;1140;-88
2021/07/10 15:02:00;0.00;0.00;0.62;0.00;0.00;0.62;;;;;30.20;1.00;;;;;;2267559;61;1952;-88
2021/07/10 15:04:27;0.00;0.00;0.62;0.00;0.00;0.62;;;;;30.20;1.00;;;;;;2268399;61;1120;-89
2021/07/10 15:06:54;38036.00;0.13;66.49;0.00;0.00;0.62;;;;;30.50;1.00;;;;;;2268299;61;1290;-89
2021/07/10 15:09:21;0.00;0.00;0.62;0.00;0.00;0.62;;;;;30.70;1.00;;;;;;2267921;61;1037;-86
2021/07/10 15:11:48;0.00;0.00;0.62;0.00;0.00;0.62;;;;;30.90;1.00;;;;;;2267469;61;1129;-86
2021/07/10 15:14:15;0.00;0.00;0.62;0.00;0.00;0.62;;;;;30.80;1.00;;;;;;2267523;61;1128;-86
2021/07/10 15:16:42;0.00;0.00;0.62;0.00;0.00;0.62;;;;;30.60;1.00;;;;;;2267024;61;1388;-86
2021/07/10 15:19:11;0.00;0.00;0.62;0.00;0.00;0.62;;;;;30.80;1.00;;;;;;2267632;61;1155;-86
2021/07/10 15:21:38;0.00;0.00;0.62;0.00;0.00;0.62;;;;;30.70;1.00;;;;;;2268048;61;1994;-86
2021/07/10 15:24:06;0.00;0.00;0.62;0.00;0.00;0.62;;;;;30.90;1.00;;;;;;2267591;61;1026;-86
2021/07/10 15:26:33;63138.00;0.21;109.90;0.00;0.00;0.62;;;;;30.70;1.00;;;;;;2267706;61;1292;-86
2021/07/10 15:29:02;76043.00;0.25;132.20;0.00;0.00;0.62;;;;;30.10;1.00;;;;;;2267934;61;1192;-86
2021/07/10 15:31:29;0.00;0.00;0.62;0.00;0.00;0.62;;;;;29.80;1.00;;;;;;2267544;61;1115;-86
2021/07/10 15:33:56;0.00;0.00;0.62;0.00;0.00;0.62;;;;;30.10;1.00;;;;;;2267786;61;1107;-86